Time;durP1;ratioP1;P1;durP2;ratioP2;P2;SDS_P1;SDS_P2;PMS_P1;PMS_P2;Temp;Humidity;BMP_temperature;BMP_pressure;BME280_temperature;BME280_humidity;BME280_pressure;Samples;Min_cycle;Max_cycle;Signal;HPM_P1;HPM_P2
2022/05/14 00:01:37;;;;;;;6.07;2.90;;;;;;;15.76;53.16;99270.59;7002836;28;20202;-80
2022/05/14 00:04:59;;;;;;;4.43;2.80;;;;;;;14.64;56.18;99267.22;7003082;28;20262;-80
2022/05/14 00:08:22;;;;;;;3.43;2.70;;;;;;;15.30;55.46;99257.47;7003805;28;20204;-80
2022/05/14 00:15:23;;;;;;;4.87;2.93;;;;;;;15.51;54.20;99259.78;7001786;28;20224;-80
2022/05/14 00:18:45;;;;;;;3.83;2.50;;;;;;;15.78;53.30;99250.28;7003797;28;20193;-79
2022/05/14 00:22:07;;;;;;;4.33;2.70;;;;;;;15.31;54.75;99266.44;7003444;28;20205;-80
2022/05/14 00:25:30;;;;;;;2.63;2.40;;;;;;;15.61;54.42;99246.50;7002835;28;20674;-80
2022/05/14 00:28:52;;;;;;;4.37;2.80;;;;;;;15.37;53.90;99246.56;7003303;28;20211;-80
2022/05/14 00:32:13;;;;;;;4.60;2.47;;;;;;;15.21;54.47;99258.81;7003859;28;20285;-80
2022/05/14 00:35:35;;;;;;;5.63;2.67;;;;;;;15.44;54.61;99250.03;7003039;28;20248;-81
2022/05/14 00:38:57;;;;;;;5.23;2.63;;;;;;;15.35;54.70;99262.28;7003419;28;20838;-80
2022/05/14 00:42:20;;;;;;;5.83;2.60;;;;;;;15.35;55.51;99257.69;7006051;28;20202;-80
2022/05/14 00:45:53;;;;;;;3.33;2.43;;;;;;;15.44;54.81;99255.47;7007825;28;20272;-80
2022/05/14 00:49:16;;;;;;;4.20;2.53;;;;;;;15.40;54.60;99244.22;7008559;28;20341;-80
2022/05/14 00:52:38;;;;;;;5.43;2.77;;;;;;;15.23;53.34;99199.66;7008492;28;20220;-80
2022/05/14 00:56:04;;;;;;;2.97;2.20;;;;;;;15.50;53.94;99244.53;7007756;28;20235;-80
2022/05/14 00:59:27;;;;;;;5.83;2.97;;;;;;;15.46;54.24;99250.66;7008318;28;20328;-80
2022/05/14 01:02:49;;;;;;;2.57;2.30;;;;;;;15.36;53.38;99237.59;7008094;28;20299;-80
2022/05/14 01:06:14;;;;;;;5.20;3.07;;;;;;;15.05;54.70;99245.78;7006984;28;20275;-80
2022/05/14 01:09:36;;;;;;;4.93;2.40;;;;;;;15.12;53.99;99243.03;7007767;28;20209;-80
2022/05/14 01:13:00;;;;;;;4.23;2.57;;;;;;;15.20;54.30;99253.59;7006640;28;20347;-79
2022/05/14 01:16:23;;;;;;;3.13;2.50;;;;;;;15.40;53.98;99257.00;7007466;28;20308;-80
2022/05/14 01:19:45;;;;;;;2.90;2.70;;;;;;;14.82;55.15;99247.47;7007687;28;20244;-80
2022/05/14 01:23:15;;;;;;;3.03;2.60;;;;;;;15.03;55.45;99247.06;7007547;28;20673;-80
2022/05/14 01:26:37;;;;;;;5.77;2.90;;;;;;;15.04;55.04;99246.03;7006606;28;20239;-80
2022/05/14 01:29:59;;;;;;;3.10;2.50;;;;;;;15.00;55.15;99248.38;7007589;28;20208;-80
2022/05/14 01:33:20;;;;;;;7.37;2.90;;;;;;;14.71;55.43;99253.63;7010626;28;20309;-80
2022/05/14 01:36:42;;;;;;;3.60;2.80;;;;;;;14.43;56.38;99242.31;7035061;28;20232;-80
2022/05/14 01:40:04;;;;;;;4.13;2.67;;;;;;;14.63;56.44;99259.31;7035382;28;20571;-80
2022/05/14 01:43:27;;;;;;;4.13;3.17;;;;;;;14.56;55.66;99177.09;7035521;28;20301;-80
2022/05/14 01:46:49;;;;;;;5.73;3.17;;;;;;;14.78;55.92;99260.66;7034449;28;20734;-80
2022/05/14 01:50:11;;;;;;;6.67;2.80;;;;;;;15.14;55.01;99252.63;7034783;28;20219;-80
2022/05/14 01:53:32;;;;;;;4.90;2.80;;;;;;;15.06;54.72;99252.06;7034155;28;20203;-80
2022/05/14 01:56:54;;;;;;;5.37;2.53;;;;;;;14.85;54.76;99247.00;7034401;28;20307;-80
2022/05/14 02:00:19;;;;;;;3.33;2.57;;;;;;;14.75;55.96;99258.38;7035611;28;20766;-81
2022/05/14 02:03:41;;;;;;;5.87;3.10;;;;;;;14.62;56.36;99258.47;7035236;28;20285;-80
2022/05/14 02:07:03;;;;;;;9.27;3.20;;;;;;;14.44;56.97;99252.13;7034241;28;20227;-80
2022/05/14 02:10:24;;;;;;;4.37;2.90;;;;;;;14.27;57.28;99253.72;7034931;28;20224;-80
2022/05/14 02:13:46;;;;;;;3.87;2.70;;;;;;;14.79;56.57;99261.47;7034382;28;20303;-80
2022/05/14 02:17:09;;;;;;;5.27;2.83;;;;;;;14.49;56.60;99250.44;7034252;28;20313;-80
2022/05/14 02:20:31;;;;;;;3.10;2.83;;;;;;;15.06;55.82;99262.94;7035007;28;20211;-79
2022/05/14 02:23:53;;;;;;;6.97;2.93;;;;;;;14.68;54.92;99254.88;7034802;28;20225;-81
2022/05/14 02:27:14;;;;;;;4.90;3.07;;;;;;;14.53;56.76;99248.97;7033630;28;20639;-80
2022/05/14 02:30:36;;;;;;;5.47;3.00;;;;;;;14.75;56.38;99247.50;7034567;28;20653;-80
2022/05/14 02:33:59;;;;;;;6.80;3.83;;;;;;;14.69;56.55;99247.59;7035202;28;20335;-80
2022/05/14 02:37:26;;;;;;;5.60;3.50;;;;;;;14.44;57.51;99242.13;7034492;28;20225;-80
2022/05/14 02:40:47;;;;;;;3.47;3.13;;;;;;;14.59;57.07;99237.22;7035021;28;20272;-80
2022/05/14 02:44:09;;;;;;;5.13;3.13;;;;;;;14.54;57.01;99252.47;7043053;28;20211;-80
2022/05/14 02:47:31;;;;;;;7.27;3.37;;;;;;;14.41;57.30;99255.28;7046119;28;20234;-80
2022/05/14 02:50:53;;;;;;;5.87;3.23;;;;;;;14.09;57.78;99248.16;7034715;28;20220;-80
2022/05/14 02:54:15;;;;;;;7.30;3.70;;;;;;;14.50;57.87;99262.94;7045790;28;20213;-80
2022/05/14 02:57:37;;;;;;;6.57;3.63;;;;;;;14.57;57.49;99262.91;7047163;28;20234;-80
2022/05/14 03:00:59;;;;;;;4.43;3.53;;;;;;;14.64;57.19;99250.13;7036750;28;20208;-80
2022/05/14 03:04:22;;;;;;;5.97;3.63;;;;;;;14.98;56.44;99260.50;7032533;28;20549;-81
2022/05/14 03:07:45;;;;;;;5.30;3.80;;;;;;;14.48;57.17;99265.06;7032642;28;20702;-80
2022/05/14 03:11:07;;;;;;;7.90;3.90;;;;;;;14.44;57.61;99252.97;7032501;28;20296;-80
2022/05/14 03:14:29;;;;;;;8.37;3.77;;;;;;;14.70;57.48;99255.47;7030686;28;20217;-80
2022/05/14 03:17:50;;;;;;;4.17;3.70;;;;;;;14.78;56.61;99254.38;7033249;28;20191;-80
2022/05/14 03:21:12;;;;;;;5.17;3.63;;;;;;;14.18;57.11;99204.28;7035574;28;20200;-80
2022/05/14 03:24:36;;;;;;;4.83;3.70;;;;;;;14.47;57.28;99263.41;7037536;28;20223;-80
2022/05/14 03:27:57;;;;;;;7.97;3.93;;;;;;;14.13;57.73;99233.94;7038279;28;20224;-80
2022/05/14 03:31:19;;;;;;;10.50;3.90;;;;;;;14.28;57.66;99234.50;7038216;28;20680;-80
2022/05/14 03:34:40;;;;;;;4.70;3.87;;;;;;;14.28;57.83;99260.81;7026597;28;20205;-80
2022/05/14 03:38:02;;;;;;;4.40;3.87;;;;;;;14.34;58.13;99257.22;7010611;28;20261;-80
2022/05/14 03:41:25;;;;;;;7.03;3.70;;;;;;;14.49;57.79;99263.16;7010508;28;20213;-80
2022/05/14 03:44:48;;;;;;;7.70;4.20;;;;;;;14.14;58.32;99270.00;7009390;28;20301;-80
2022/05/14 03:48:09;;;;;;;5.67;4.13;;;;;;;14.22;58.46;99265.19;7008485;28;20235;-80
2022/05/14 03:51:32;;;;;;;7.73;3.90;;;;;;;14.11;57.97;99216.22;7007391;28;20304;-80
2022/05/14 03:54:53;;;;;;;9.93;4.27;;;;;;;14.52;57.57;99258.13;7007084;28;20218;-80
2022/05/14 03:58:16;;;;;;;9.03;6.47;;;;;;;14.48;56.64;99265.06;7007758;28;20300;-80
2022/05/14 04:01:38;;;;;;;6.90;4.23;;;;;;;14.20;57.77;99261.88;7008830;28;20214;-80
2022/05/14 04:05:00;;;;;;;6.70;4.50;;;;;;;14.49;57.61;99268.59;7008972;28;20228;-80
2022/05/14 04:08:21;;;;;;;5.60;3.97;;;;;;;14.22;57.85;99267.91;7007660;28;20223;-80
2022/05/14 04:11:43;;;;;;;5.00;4.03;;;;;;;14.08;58.43;99260.88;7007175;28;20212;-80
2022/05/14 04:15:07;;;;;;;5.37;4.10;;;;;;;14.47;57.77;99249.00;7006741;28;20247;-80
2022/05/14 04:18:29;;;;;;;5.47;3.77;;;;;;;14.69;57.02;99267.41;7007733;28;20194;-80
2022/05/14 04:21:50;;;;;;;11.13;4.30;;;;;;;14.67;56.77;99260.53;7007582;28;20215;-80
2022/05/14 04:25:13;;;;;;;4.43;4.03;;;;;;;14.57;57.32;99260.19;7005017;28;20707;-80
2022/05/14 04:28:34;;;;;;;5.70;4.37;;;;;;;14.35;57.18;99229.03;7006002;28;20230;-80
2022/05/14 04:31:57;;;;;;;5.13;4.20;;;;;;;14.67;57.58;99263.22;7005792;28;20204;-80
2022/05/14 04:35:21;;;;;;;5.07;4.50;;;;;;;14.63;57.58;99267.47;7024710;28;20236;-80
2022/05/14 04:38:42;;;;;;;5.30;4.50;;;;;;;14.56;58.04;99272.91;7024969;28;20311;-80
2022/05/14 04:42:07;;;;;;;4.97;3.93;;;;;;;14.35;58.05;99229.03;7015978;28;20205;-81
2022/05/14 04:45:29;;;;;;;4.90;4.40;;;;;;;14.60;58.05;99279.59;7028853;28;20228;-79
2022/05/14 04:48:53;;;;;;;5.47;4.40;;;;;;;14.60;58.49;99268.72;7029325;28;20223;-80
2022/05/14 04:52:15;;;;;;;6.73;4.63;;;;;;;14.76;58.49;99273.59;7035945;28;20308;-80
2022/05/14 04:55:37;;;;;;;7.43;4.23;;;;;;;14.82;58.40;99248.28;7036887;28;20233;-80
2022/05/14 04:58:58;;;;;;;6.67;4.43;;;;;;;14.58;58.98;99264.56;7036182;28;20204;-81
2022/05/14 05:06:01;;;;;;;5.10;3.83;;;;;;;15.48;58.30;99251.25;7022958;28;20884;-80
2022/05/14 05:09:23;;;;;;;4.97;3.87;;;;;;;15.69;57.02;99267.94;7008439;28;20252;-80
2022/05/14 05:12:45;;;;;;;6.67;3.80;;;;;;;15.87;56.48;99254.34;7020318;28;20204;-83
2022/05/14 05:16:06;;;;;;;5.77;3.67;;;;;;;16.11;56.32;99272.44;7021542;28;20232;-79
2022/05/14 05:19:28;;;;;;;5.47;3.17;;;;;;;16.56;55.23;99241.06;7034864;28;20242;-80
2022/05/14 05:22:51;;;;;;;5.57;3.43;;;;;;;17.11;54.34;99277.06;7020062;28;20205;-80
2022/05/14 05:26:13;;;;;;;5.23;3.60;;;;;;;17.19;54.21;99263.94;7037046;28;20220;-81
2022/05/14 05:29:34;;;;;;;5.13;3.50;;;;;;;17.51;53.88;99283.53;7041673;28;20201;-82
2022/05/14 05:32:56;;;;;;;5.33;3.20;;;;;;;17.73;53.40;99279.09;7044048;28;20220;-82
2022/05/14 05:36:18;;;;;;;4.77;3.50;;;;;;;17.89;52.62;99238.28;7029799;28;20227;-81
2022/05/14 05:39:40;;;;;;;3.83;3.40;;;;;;;18.41;51.67;99274.56;7016165;28;20669;-81
2022/05/14 05:43:02;;;;;;;5.23;3.00;;;;;;;18.56;51.67;99252.97;7015109;28;20249;-82
2022/05/14 05:46:24;;;;;;;5.23;3.20;;;;;;;18.85;50.51;99249.13;7015357;28;20234;-83
2022/05/14 05:49:45;;;;;;;4.10;3.07;;;;;;;19.64;49.31;99273.41;7017943;28;20194;-81
2022/05/14 05:53:07;;;;;;;6.20;3.27;;;;;;;19.83;49.51;99277.50;7042196;28;20216;-82
2022/05/14 05:56:51;;;;;;;4.33;3.43;;;;;;;19.70;48.32;99234.91;7044415;28;20225;-82
2022/05/14 06:00:16;;;;;;;6.90;3.40;;;;;;;19.75;48.32;99267.81;7042678;28;20206;-81
2022/05/14 06:03:37;;;;;;;5.10;4.07;;;;;;;20.28;47.92;99262.50;7044478;28;20570;-80
2022/05/14 06:06:59;;;;;;;6.40;4.30;;;;;;;20.16;48.50;99239.09;7056100;28;20241;-81
2022/05/14 06:10:22;;;;;;;6.10;3.97;;;;;;;21.31;46.67;99266.56;7059180;28;20238;-82
2022/05/14 06:13:46;;;;;;;4.23;3.33;;;;;;;22.03;44.15;99270.38;7040819;28;20208;-81
2022/05/14 06:17:07;;;;;;;4.07;3.33;;;;;;;21.95;44.06;99278.28;7039638;28;20310;-81
2022/05/14 06:20:29;;;;;;;3.87;3.30;;;;;;;22.39;43.25;99252.91;7040343;28;20219;-82
2022/05/14 06:23:51;;;;;;;5.67;3.63;;;;;;;22.44;42.94;99254.88;7041230;28;20210;-81
2022/05/14 06:27:12;;;;;;;7.87;3.20;;;;;;;23.45;41.65;99267.66;7041037;28;20233;-82
2022/05/14 06:30:37;;;;;;;4.37;2.77;;;;;;;23.57;40.91;99271.78;7039036;28;20205;-81
2022/05/14 06:33:59;;;;;;;9.47;3.30;;;;;;;23.55;38.88;99237.38;7039700;28;20653;-81
2022/05/14 06:37:20;;;;;;;4.10;2.83;;;;;;;24.00;39.63;99271.16;7039482;28;20229;-81
2022/05/14 06:40:43;;;;;;;5.20;2.80;;;;;;;24.34;38.70;99266.63;7040840;28;20221;-81
2022/05/14 06:44:05;;;;;;;6.07;2.83;;;;;;;24.46;39.02;99264.34;7042676;28;20229;-83
2022/05/14 06:47:28;;;;;;;5.13;3.00;;;;;;;24.69;37.93;99263.69;7042501;28;20573;-83
2022/05/14 06:50:50;;;;;;;2.93;2.43;;;;;;;24.28;38.54;99258.66;7042802;28;20215;-83
2022/05/14 06:54:11;;;;;;;4.63;2.70;;;;;;;24.94;38.44;99263.53;7042921;28;20193;-83
2022/05/14 06:57:34;;;;;;;4.67;2.67;;;;;;;24.33;37.93;99242.94;7043159;28;20586;-83
2022/05/14 07:00:55;;;;;;;4.23;2.70;;;;;;;24.96;37.66;99217.16;7044901;28;20201;-82
2022/05/14 07:07:58;;;;;;;4.30;2.80;;;;;;;23.70;38.46;99246.41;7044794;28;20205;-81
2022/05/14 07:11:20;;;;;;;5.20;2.87;;;;;;;24.35;39.44;99264.66;7041839;28;20202;-81
2022/05/14 07:14:43;;;;;;;5.03;2.27;;;;;;;24.40;38.47;99251.69;7041890;28;20193;-82
2022/05/14 07:18:05;;;;;;;4.70;2.60;;;;;;;23.70;40.01;99273.97;7042388;28;20595;-82
2022/05/14 07:21:28;;;;;;;5.40;2.43;;;;;;;23.56;40.79;99272.88;7042890;28;20208;-82
2022/05/14 07:24:50;;;;;;;6.37;2.80;;;;;;;23.79;39.79;99279.72;7047604;28;20227;-82
2022/05/14 07:28:11;;;;;;;3.80;2.70;;;;;;;23.72;40.40;99280.00;7056695;28;20227;-82
2022/05/14 07:31:34;;;;;;;3.20;2.53;;;;;;;23.73;40.41;99278.91;7046195;28;20219;-82
2022/05/14 07:34:55;;;;;;;4.93;2.33;;;;;;;24.18;38.97;99267.78;7040703;28;20224;-82
2022/05/14 07:38:18;;;;;;;3.77;2.57;;;;;;;24.21;38.87;99277.41;7028138;28;20193;-83
2022/05/14 07:41:43;;;;;;;6.10;2.70;;;;;;;24.44;38.33;99271.25;7040281;28;20204;-83
2022/05/14 07:45:07;;;;;;;5.20;2.40;;;;;;;24.89;36.03;99268.28;7034494;28;20315;-82
2022/05/14 07:48:32;;;;;;;3.77;2.40;;;;;;;24.78;35.64;99264.72;7034962;28;20221;-82
2022/05/14 07:51:54;;;;;;;4.70;1.87;;;;;;;24.35;34.30;99276.53;7031234;28;20300;-82
2022/05/14 07:55:17;;;;;;;3.73;2.27;;;;;;;24.26;33.81;99264.44;7007132;28;20692;-82
2022/05/14 07:58:40;;;;;;;3.47;1.80;;;;;;;24.88;32.75;99264.69;7006784;28;20693;-82
2022/05/14 08:02:02;;;;;;;7.67;2.27;;;;;;;26.04;31.38;99259.78;7006252;28;20259;-83
2022/05/14 08:05:24;;;;;;;3.27;1.70;;;;;;;26.11;30.46;99278.78;7009425;28;20231;-83
2022/05/14 08:08:46;;;;;;;8.50;1.90;;;;;;;26.52;30.21;99272.47;7019474;28;20248;-83
2022/05/14 08:12:11;;;;;;;2.43;1.70;;;;;;;26.56;29.15;99229.28;7007890;28;20207;-82
2022/05/14 08:15:32;;;;;;;3.30;1.43;;;;;;;26.98;29.55;99265.19;7006187;28;20239;-82
2022/05/14 08:18:54;;;;;;;3.67;2.50;;;;;;;27.33;27.48;99261.88;7012488;28;20194;-82
2022/05/14 08:25:56;;;;;;;3.07;1.83;;;;;;;26.33;29.16;99252.25;7027233;28;20303;-82
2022/05/14 08:29:20;;;;;;;3.73;1.70;;;;;;;27.58;26.82;99263.34;7028026;28;20277;-82
2022/05/14 08:32:42;;;;;;;2.63;1.30;;;;;;;26.96;28.41;99253.56;7052750;28;20214;-83
2022/05/14 08:36:04;;;;;;;4.33;1.50;;;;;;;25.29;28.73;99241.19;7060835;28;20228;-82
2022/05/14 08:39:27;;;;;;;2.20;1.67;;;;;;;25.83;29.98;99263.06;7061833;28;20679;-80
2022/05/14 08:42:52;;;;;;;4.37;1.70;;;;;;;26.96;28.33;99258.28;7061674;28;20341;-80
2022/05/14 08:46:19;;;;;;;4.20;1.87;;;;;;;27.66;28.60;99252.41;7061274;28;20232;-80
2022/05/14 08:49:44;;;;;;;2.47;1.70;;;;;;;27.45;28.30;99242.81;7051880;28;20579;-81
2022/05/14 08:53:08;;;;;;;4.97;2.40;;;;;;;27.27;27.62;99240.94;7022550;28;20214;-81
2022/05/14 08:56:38;;;;;;;6.73;3.00;;;;;;;27.93;28.22;99251.66;7004408;28;20231;-80
2022/05/14 09:00:01;;;;;;;5.90;2.87;;;;;;;27.67;29.10;99234.63;7024887;28;20190;-81
2022/05/14 09:03:24;;;;;;;6.90;2.20;;;;;;;28.07;27.29;99249.72;7036348;28;20228;-81
2022/05/14 09:06:47;;;;;;;5.47;2.40;;;;;;;29.12;26.59;99245.44;7038224;28;20233;-81
2022/05/14 09:10:21;;;;;;;2.83;2.17;;;;;;;28.17;26.65;99246.72;7038306;28;20615;-81
2022/05/14 09:13:45;;;;;;;3.10;1.70;;;;;;;27.01;27.33;99225.81;7038922;28;20193;-81
2022/05/14 09:17:12;;;;;;;3.13;1.80;;;;;;;28.11;27.21;99232.16;7037814;28;20243;-81
2022/05/14 09:20:42;;;;;;;4.23;1.80;;;;;;;27.84;27.74;99228.56;7037928;28;20283;-81
2022/05/14 09:24:15;;;;;;;4.17;2.03;;;;;;;27.84;26.88;99232.13;7038207;28;20184;-80
2022/05/14 09:27:46;;;;;;;4.47;2.23;;;;;;;27.46;29.03;99235.31;7037423;28;20242;-81
2022/05/14 09:31:07;;;;;;;3.03;1.77;;;;;;;28.20;28.03;99233.06;7039154;28;20200;-81
2022/05/14 09:34:31;;;;;;;3.33;2.00;;;;;;;28.99;26.48;99217.72;7037885;28;20207;-83
2022/05/14 09:37:58;;;;;;;5.37;1.97;;;;;;;28.22;27.07;99211.41;7032822;28;20198;-82
2022/05/14 09:41:21;;;;;;;3.70;1.80;;;;;;;28.45;27.65;99227.03;7038874;28;20267;-82
2022/05/14 09:44:47;;;;;;;3.63;2.10;;;;;;;28.57;26.75;99241.19;7040266;28;20214;-80
2022/05/14 09:48:11;;;;;;;1.80;1.67;;;;;;;28.85;25.82;99206.63;7039203;28;20314;-82
2022/05/14 09:51:35;;;;;;;5.37;2.10;;;;;;;28.78;26.85;99224.88;7039237;28;20251;-82
2022/05/14 09:55:01;;;;;;;3.27;1.80;;;;;;;28.93;27.16;99225.34;7038743;28;20238;-81
2022/05/14 09:58:30;;;;;;;3.40;2.10;;;;;;;29.02;26.61;99228.22;7039718;28;20333;-82
2022/05/14 10:01:58;;;;;;;5.70;1.90;;;;;;;29.33;26.55;99207.69;7039122;28;20203;-81
2022/05/14 10:05:40;;;;;;;4.93;2.00;;;;;;;29.21;27.29;99218.56;7038813;28;20242;-82
2022/05/14 10:09:09;;;;;;;6.40;2.13;;;;;;;29.61;26.23;99214.75;7038851;28;20267;-82
2022/05/14 10:12:35;;;;;;;4.83;1.90;;;;;;;28.83;27.55;99220.03;7024527;28;20205;-81
2022/05/14 10:16:03;;;;;;;3.93;2.10;;;;;;;27.36;27.92;99174.59;7022711;28;20623;-82
2022/05/14 10:19:43;;;;;;;6.53;2.37;;;;;;;28.00;28.96;99211.31;7037052;28;20198;-82
2022/05/14 10:27:12;;;;;;;3.53;1.90;;;;;;;27.90;27.49;99216.25;7037377;28;20214;-82
2022/05/14 10:30:42;;;;;;;4.30;2.00;;;;;;;28.70;28.31;99204.25;7037219;28;20210;-82
2022/05/14 10:34:11;;;;;;;3.60;2.27;;;;;;;27.63;27.18;99224.47;7031559;28;20602;-81
2022/05/14 10:37:34;;;;;;;3.40;2.17;;;;;;;28.10;27.50;99193.63;7010066;28;20227;-82
2022/05/14 10:41:00;;;;;;;6.23;2.20;;;;;;;27.75;28.04;99197.94;7035315;28;20205;-81
2022/05/14 10:44:31;;;;;;;6.40;2.20;;;;;;;27.61;29.30;99199.03;7038364;28;20860;-82
2022/05/14 10:48:03;;;;;;;5.60;2.30;;;;;;;28.75;27.41;99204.13;7038499;28;20627;-82
2022/05/14 10:51:26;;;;;;;4.00;2.10;;;;;;;28.66;27.54;99196.84;7038350;28;20211;-82
2022/05/14 10:54:48;;;;;;;4.70;2.37;;;;;;;27.96;27.83;99199.19;7009517;28;20202;-82
2022/05/14 10:58:21;;;;;;;11.13;2.40;;;;;;;28.35;28.02;99185.59;7009448;28;20572;-82
2022/05/14 11:01:47;;;;;;;8.10;2.20;;;;;;;27.65;27.72;99192.56;7009550;28;20210;-83
2022/05/14 11:05:10;;;;;;;3.70;2.17;;;;;;;29.02;26.61;99184.59;7009113;28;20224;-82
2022/05/14 11:08:33;;;;;;;4.07;2.37;;;;;;;28.33;26.86;99170.38;7011567;28;20224;-81
2022/05/14 11:12:00;;;;;;;5.70;2.30;;;;;;;28.63;26.37;99184.44;7011001;28;20230;-82
2022/05/14 11:15:23;;;;;;;2.63;1.80;;;;;;;29.59;26.60;99183.69;7010407;28;20223;-82
2022/05/14 11:18:48;;;;;;;4.40;2.03;;;;;;;30.18;25.59;99185.91;7015978;28;20538;-82
2022/05/14 11:22:21;;;;;;;5.63;2.70;;;;;;;30.44;24.29;99175.63;7040481;28;20230;-82
2022/05/14 11:25:42;;;;;;;3.33;2.03;;;;;;;30.64;23.90;99161.13;7038806;28;20617;-82
2022/05/14 11:29:14;;;;;;;6.47;2.23;;;;;;;29.06;25.70;99188.38;7039323;28;20238;-82
2022/05/14 11:32:44;;;;;;;7.23;2.00;;;;;;;26.84;27.79;99133.41;7040054;28;20201;-82
2022/05/14 11:36:19;;;;;;;4.37;2.47;;;;;;;28.10;27.60;99177.00;7039349;28;20255;-82
2022/05/14 11:39:42;;;;;;;2.77;1.70;;;;;;;29.18;25.87;99143.38;7038909;28;20208;-82
2022/05/14 11:43:11;;;;;;;6.27;2.10;;;;;;;28.46;26.45;99173.16;7039682;28;20208;-81
2022/05/14 11:46:36;;;;;;;3.73;2.00;;;;;;;28.40;26.37;99163.31;7038809;28;20230;-82
2022/05/14 11:49:58;;;;;;;6.40;2.30;;;;;;;26.35;29.02;99166.22;7038026;28;20633;-81
2022/05/14 11:53:28;;;;;;;3.57;1.67;;;;;;;27.64;27.26;99167.94;7037953;28;20282;-81
2022/05/14 11:56:54;;;;;;;3.40;1.80;;;;;;;28.21;27.02;99153.47;7012424;28;20217;-81
2022/05/14 12:00:19;;;;;;;4.63;2.23;;;;;;;29.19;25.43;99154.16;7010305;28;20203;-81
2022/05/14 12:03:43;;;;;;;5.20;2.13;;;;;;;27.54;26.75;99127.41;7010317;28;20238;-81
2022/05/14 12:07:22;;;;;;;4.40;1.90;;;;;;;28.68;26.15;99151.00;7014391;28;20225;-81
2022/05/14 12:10:50;;;;;;;5.97;2.27;;;;;;;29.92;25.05;99146.03;7023858;28;20225;-82
2022/05/14 12:14:15;;;;;;;3.70;1.87;;;;;;;30.12;25.35;99144.63;7027234;28;20336;-82
2022/05/14 12:17:37;;;;;;;5.33;2.00;;;;;;;29.56;24.66;99133.47;7023198;28;20220;-82
2022/05/14 12:21:01;;;;;;;3.57;1.80;;;;;;;28.42;25.49;99133.31;7026534;28;20220;-83
2022/05/14 12:24:25;;;;;;;4.57;2.40;;;;;;;29.22;26.60;99133.25;7045439;28;20205;-81
2022/05/14 12:27:49;;;;;;;5.13;1.70;;;;;;;29.90;24.66;99131.63;7036536;28;20252;-81
2022/05/14 12:34:51;;;;;;;2.60;1.90;;;;;;;29.71;24.53;99121.94;7029774;28;20254;-85
2022/05/14 12:38:14;;;;;;;2.53;1.60;;;;;;;30.53;22.67;99125.53;7010422;28;20235;-82
2022/05/14 12:41:40;;;;;;;2.50;1.60;;;;;;;30.48;22.91;99123.72;7011910;28;20231;-82
2022/05/14 12:45:03;;;;;;;4.83;1.70;;;;;;;28.29;23.65;99128.59;7012916;28;20227;-82
2022/05/14 12:48:27;;;;;;;2.77;1.33;;;;;;;30.26;22.50;99118.31;7014309;28;20234;-82
2022/05/14 12:51:50;;;;;;;3.33;1.53;;;;;;;30.33;22.22;99098.34;7011276;28;20219;-82
2022/05/14 12:55:15;;;;;;;2.33;1.40;;;;;;;30.15;22.31;99088.38;7023161;28;20232;-81
2022/05/14 12:58:38;;;;;;;1.70;1.53;;;;;;;29.33;23.25;99116.03;7036887;28;20538;-83
2022/05/14 13:02:02;;;;;;;3.57;1.60;;;;;;;28.57;23.07;99107.97;7038881;28;20204;-82
2022/05/14 13:05:29;;;;;;;4.13;1.43;;;;;;;29.42;22.62;99099.38;7039177;28;20234;-82
2022/05/14 13:08:52;;;;;;;2.97;1.43;;;;;;;29.38;22.38;99092.81;7039406;28;20230;-82
2022/05/14 13:12:19;;;;;;;2.73;1.57;;;;;;;30.26;22.42;99096.06;7013229;28;20255;-82
2022/05/14 13:15:43;;;;;;;3.93;1.77;;;;;;;29.33;22.92;99096.56;7009849;28;20240;-82
2022/05/14 13:19:20;;;;;;;3.77;1.80;;;;;;;28.97;22.43;99101.44;7011363;28;20225;-82
2022/05/14 13:22:44;;;;;;;4.03;1.70;;;;;;;29.23;22.79;99090.44;7012661;28;20239;-81
2022/05/14 13:26:08;;;;;;;7.30;1.70;;;;;;;29.87;20.83;99050.81;7011626;28;20704;-82
2022/05/14 13:29:32;;;;;;;2.63;1.30;;;;;;;29.69;22.19;99049.16;7015743;28;20228;-81
2022/05/14 13:33:03;;;;;;;1.50;1.40;;;;;;;30.20;20.74;99082.63;7011434;28;20222;-82
2022/05/14 13:40:22;;;;;;;2.73;1.43;;;;;;;29.36;21.96;99073.69;6944697;28;20585;-82
2022/05/14 13:43:44;;;;;;;3.27;1.70;;;;;;;28.75;22.39;99068.13;6940166;28;20725;-81
2022/05/14 13:47:06;;;;;;;3.63;1.67;;;;;;;29.34;21.80;99067.66;7009693;28;20240;-81
2022/05/14 13:50:31;;;;;;;4.17;1.67;;;;;;;28.54;22.33;99042.00;7011719;28;20221;-81
2022/05/14 13:53:54;;;;;;;2.63;1.67;;;;;;;29.62;21.91;99044.06;7012162;28;20205;-82
2022/05/14 13:57:25;;;;;;;4.70;1.60;;;;;;;29.47;22.46;99063.09;7014268;28;20224;-82
2022/05/14 14:00:54;;;;;;;3.40;1.97;;;;;;;29.30;22.22;99063.84;7015365;28;20202;-81
2022/05/14 14:04:18;;;;;;;2.97;1.87;;;;;;;29.59;21.82;99033.59;7015024;28;20215;-81
2022/05/14 14:07:40;;;;;;;6.13;1.80;;;;;;;29.37;21.24;99049.53;7019445;28;20221;-82
2022/05/14 14:11:02;;;;;;;2.53;1.57;;;;;;;30.03;22.07;99047.25;7025777;28;20314;-82
2022/05/14 14:14:25;;;;;;;1.70;1.37;;;;;;;30.02;21.43;99053.13;7026540;28;20210;-82
2022/05/14 14:17:48;;;;;;;4.93;1.60;;;;;;;30.21;21.08;99040.59;7023567;28;20248;-82
2022/05/14 14:21:12;;;;;;;3.27;1.40;;;;;;;29.93;20.95;99036.44;7017241;28;20296;-82
2022/05/14 14:24:34;;;;;;;2.00;1.40;;;;;;;30.52;20.95;99030.09;7023534;28;20218;-82
2022/05/14 14:27:56;;;;;;;3.53;1.10;;;;;;;30.63;20.28;99025.81;7026622;28;20209;-82
2022/05/14 14:31:21;;;;;;;3.90;1.73;;;;;;;29.66;21.70;99024.78;7041861;28;20234;-81
2022/05/14 14:34:43;;;;;;;2.20;1.77;;;;;;;29.17;21.49;98963.97;7037820;28;20209;-81
2022/05/14 14:38:04;;;;;;;4.87;1.43;;;;;;;29.85;22.03;99022.53;7036306;28;20313;-81
2022/05/14 14:41:27;;;;;;;3.27;1.57;;;;;;;29.47;21.60;99008.34;7036526;28;20203;-82
2022/05/14 14:44:50;;;;;;;2.30;1.70;;;;;;;29.20;21.61;99016.91;7036367;28;20265;-82
2022/05/14 14:48:14;;;;;;;3.33;1.50;;;;;;;29.29;22.11;99014.16;7036343;28;20209;-81
2022/05/14 14:51:36;;;;;;;1.90;1.40;;;;;;;29.66;21.54;99011.69;7035014;28;20206;-81
2022/05/14 14:54:58;;;;;;;4.87;1.90;;;;;;;29.91;21.45;99002.56;7031119;28;20234;-82
2022/05/14 14:58:19;;;;;;;2.07;1.30;;;;;;;29.01;21.96;99001.66;7037649;28;20218;-82
2022/05/14 15:01:46;;;;;;;4.03;1.57;;;;;;;29.40;21.28;98971.06;7036751;28;20199;-82
2022/05/14 15:05:12;;;;;;;2.87;1.40;;;;;;;29.41;21.56;98995.75;7039437;28;20305;-82
2022/05/14 15:08:37;;;;;;;2.50;1.30;;;;;;;29.25;21.52;99002.88;7059756;28;20218;-82
2022/05/14 15:11:58;;;;;;;3.07;1.47;;;;;;;29.27;21.06;98991.47;7043715;28;20213;-82
2022/05/14 15:15:20;;;;;;;5.33;1.40;;;;;;;29.04;21.04;98985.19;7035771;28;20271;-82
2022/05/14 15:18:42;;;;;;;5.10;1.80;;;;;;;28.53;21.10;98986.81;7036334;28;20209;-81
2022/05/14 15:22:05;;;;;;;4.00;1.90;;;;;;;28.85;20.81;98994.84;7034663;28;20627;-81
2022/05/14 15:25:27;;;;;;;2.00;1.57;;;;;;;29.17;20.33;98952.84;7035709;28;20272;-82
2022/05/14 15:28:49;;;;;;;1.57;1.40;;;;;;;28.63;21.52;98987.41;7036787;28;20229;-83
2022/05/14 15:32:17;;;;;;;1.87;1.60;;;;;;;28.95;21.56;98975.97;7037215;28;20687;-82
2022/05/14 15:35:39;;;;;;;1.70;1.60;;;;;;;28.82;21.34;98978.81;7032378;28;20229;-82
2022/05/14 15:39:02;;;;;;;2.93;1.60;;;;;;;29.16;21.47;98957.63;7018075;28;20201;-82
2022/05/14 15:42:27;;;;;;;1.90;1.30;;;;;;;29.89;19.87;98982.63;7035642;28;20319;-82
2022/05/14 15:45:52;;;;;;;1.23;1.13;;;;;;;29.04;20.93;98903.81;7035356;28;20580;-82
2022/05/14 15:49:16;;;;;;;2.53;1.33;;;;;;;29.15;20.48;98978.19;7036148;28;20236;-81
2022/05/14 15:52:39;;;;;;;1.67;1.50;;;;;;;29.45;19.84;98968.97;7036587;28;20202;-82
2022/05/14 15:56:03;;;;;;;1.73;1.40;;;;;;;29.17;20.01;98973.13;7035666;28;20715;-82
2022/05/14 15:59:26;;;;;;;3.20;1.47;;;;;;;29.07;20.18;98981.75;7036789;28;20202;-83
2022/05/14 16:02:48;;;;;;;4.50;4.03;;;;;;;28.62;20.41;98968.28;7036200;28;20215;-82
2022/05/14 16:06:11;;;;;;;2.30;1.87;;;;;;;28.81;19.67;98978.00;7035381;28;20225;-82
2022/05/14 16:09:34;;;;;;;4.27;1.97;;;;;;;29.03;19.78;98980.78;7035515;28;20227;-82
2022/05/14 16:16:36;;;;;;;3.53;1.93;;;;;;;28.37;19.38;98936.47;7036388;28;20215;-82
2022/05/14 16:19:58;;;;;;;1.33;1.20;;;;;;;28.50;18.66;98918.94;7020123;28;20207;-83
2022/05/14 16:23:19;;;;;;;2.27;1.53;;;;;;;28.99;18.70;98967.81;7015171;28;20249;-83
2022/05/14 16:26:41;;;;;;;5.53;1.60;;;;;;;28.21;19.74;98965.72;7012151;28;20222;-83
2022/05/14 16:30:11;;;;;;;3.43;2.30;;;;;;;28.41;19.27;98972.72;7009773;28;20250;-83